Time;durP1;ratioP1;P1;durP2;ratioP2;P2;SDS_P1;SDS_P2;PMS_P1;PMS_P2;Temp;Humidity;BMP_temperature;BMP_pressure;BME280_temperature;BME280_humidity;BME280_pressure;Samples;Min_cycle;Max_cycle;Signal;HPM_P1;HPM_P2
2022/09/03 00:05:33;;;;;;;2.90;2.15;;;;;;;;;;10389809;28;20208;-77
2022/09/03 00:10:45;;;;;;;3.55;2.10;;;;;;;;;;10397308;28;20069;-77
2022/09/03 00:15:45;;;;;;;1.98;1.80;;;;;;;;;;10390245;28;20041;-78
2022/09/03 00:20:50;;;;;;;2.50;1.70;;;;;;;;;;10390479;28;20029;-76
2022/09/03 00:25:54;;;;;;;1.73;1.63;;;;;;;;;;10397327;28;20076;-78
2022/09/03 00:31:18;;;;;;;2.35;1.90;;;;;;;;;;10389669;28;20037;-77
2022/09/03 00:36:21;;;;;;;1.60;1.50;;;;;;;;;;10395294;28;20124;-77
2022/09/03 00:41:29;;;;;;;1.70;1.60;;;;;;;;;;10396585;28;20044;-77
2022/09/03 00:46:44;;;;;;;1.40;1.30;;;;;;;;;;10389107;28;20040;-77
2022/09/03 00:51:47;;;;;;;2.25;1.73;;;;;;;;;;10391434;28;20056;-77
2022/09/03 00:56:54;;;;;;;2.50;1.80;;;;;;;;;;10389746;28;20696;-78
2022/09/03 01:01:57;;;;;;;2.08;1.50;;;;;;;;;;10388659;28;20495;-77
2022/09/03 01:12:29;;;;;;;1.88;1.77;;;;;;;;;;10258233;26;20399;-77
2022/09/03 01:17:32;;;;;;;1.85;1.75;;;;;;;;;;10305603;28;20126;-77
2022/09/03 01:22:39;;;;;;;2.20;1.83;;;;;;;;;;10283090;28;20463;-78
2022/09/03 01:27:58;;;;;;;3.30;2.10;;;;;;;;;;10290071;28;20046;-79
2022/09/03 01:33:02;;;;;;;2.30;2.10;;;;;;;;;;10294869;28;20359;-76
2022/09/03 01:38:03;;;;;;;2.25;2.05;;;;;;;;;;10285428;28;20038;-76
2022/09/03 01:43:09;;;;;;;2.00;1.90;;;;;;;;;;10289434;28;20470;-77
2022/09/03 01:48:22;;;;;;;2.95;1.98;;;;;;;;;;10284461;28;20318;-78
2022/09/03 01:53:34;;;;;;;1.57;1.47;;;;;;;;;;10286437;28;20105;-77
2022/09/03 01:58:44;;;;;;;2.08;1.90;;;;;;;;;;10284816;28;20601;-76
2022/09/03 02:03:45;;;;;;;1.95;1.80;;;;;;;;;;10284714;28;20039;-76
2022/09/03 02:08:46;;;;;;;2.95;1.77;;;;;;;;;;10285300;28;20113;-76
2022/09/03 02:13:48;;;;;;;2.30;2.10;;;;;;;;;;10282470;28;20093;-75
2022/09/03 02:18:50;;;;;;;2.25;2.00;;;;;;;;;;10283253;28;20038;-78
2022/09/03 02:23:51;;;;;;;2.17;1.90;;;;;;;;;;10283709;28;20035;-77
2022/09/03 02:28:52;;;;;;;4.60;2.23;;;;;;;;;;10287784;28;20073;-78
2022/09/03 02:33:53;;;;;;;2.20;2.00;;;;;;;;;;10286249;28;20297;-77
2022/09/03 02:38:54;;;;;;;1.90;1.80;;;;;;;;;;10284154;28;20518;-77
2022/09/03 02:44:03;;;;;;;2.20;2.00;;;;;;;;;;10286163;28;20077;-76
2022/09/03 02:49:04;;;;;;;2.13;1.85;;;;;;;;;;10286585;28;20074;-77
2022/09/03 02:54:05;;;;;;;2.10;1.90;;;;;;;;;;10286394;28;20134;-77
2022/09/03 02:59:06;;;;;;;3.22;2.55;;;;;;;;;;10288900;28;20074;-78
2022/09/03 03:04:06;;;;;;;2.42;2.22;;;;;;;;;;10295246;28;20053;-78
2022/09/03 03:09:07;;;;;;;2.43;2.23;;;;;;;;;;10287173;28;20055;-77
2022/09/03 03:14:07;;;;;;;2.25;2.03;;;;;;;;;;10319624;28;20041;-77
2022/09/03 03:19:08;;;;;;;2.40;2.20;;;;;;;;;;10295978;28;20085;-78
2022/09/03 03:24:08;;;;;;;2.50;2.30;;;;;;;;;;10286724;28;20876;-77
2022/09/03 03:29:13;;;;;;;3.22;2.58;;;;;;;;;;10286064;28;20127;-77
2022/09/03 03:34:15;;;;;;;2.58;2.13;;;;;;;;;;10301222;28;20046;-76
2022/09/03 03:39:15;;;;;;;2.55;2.35;;;;;;;;;;10295127;28;20114;-76
2022/09/03 03:44:16;;;;;;;3.37;2.70;;;;;;;;;;10291516;28;20042;-76
2022/09/03 03:49:16;;;;;;;2.80;2.55;;;;;;;;;;10290355;28;20372;-78
2022/09/03 03:54:17;;;;;;;2.58;2.38;;;;;;;;;;10290664;28;20030;-78
2022/09/03 03:59:17;;;;;;;3.60;2.63;;;;;;;;;;10287760;28;20058;-77
2022/09/03 04:04:17;;;;;;;3.27;2.97;;;;;;;;;;10291587;28;20409;-78
2022/09/03 04:09:18;;;;;;;2.92;2.70;;;;;;;;;;10288622;28;20302;-76
2022/09/03 04:14:18;;;;;;;3.90;2.80;;;;;;;;;;10288332;28;20050;-77
2022/09/03 04:19:19;;;;;;;3.33;2.90;;;;;;;;;;10289515;28;20042;-77
2022/09/03 04:24:19;;;;;;;2.80;2.60;;;;;;;;;;10284825;28;20361;-76
2022/09/03 04:29:20;;;;;;;4.07;3.67;;;;;;;;;;10288292;28;20402;-76
2022/09/03 04:34:21;;;;;;;4.20;3.80;;;;;;;;;;10288839;28;20282;-75
2022/09/03 04:39:21;;;;;;;4.45;3.47;;;;;;;;;;10286150;28;20097;-76
2022/09/03 04:44:22;;;;;;;3.20;2.90;;;;;;;;;;10284159;28;20042;-77
2022/09/03 04:49:23;;;;;;;3.03;2.80;;;;;;;;;;10287122;28;20299;-77
2022/09/03 04:54:24;;;;;;;3.60;3.00;;;;;;;;;;10288468;28;20074;-76
2022/09/03 04:59:24;;;;;;;3.88;3.22;;;;;;;;;;10292517;28;20081;-76
2022/09/03 05:04:24;;;;;;;2.73;2.53;;;;;;;;;;10295186;28;20022;-78
2022/09/03 05:09:25;;;;;;;2.88;2.50;;;;;;;;;;10311963;28;20046;-79
2022/09/03 05:14:25;;;;;;;3.03;2.58;;;;;;;;;;10312623;28;20035;-77
2022/09/03 05:19:26;;;;;;;2.53;2.33;;;;;;;;;;10307231;28;20121;-77
2022/09/03 05:24:26;;;;;;;2.30;2.10;;;;;;;;;;10305332;28;20310;-78
2022/09/03 05:29:26;;;;;;;2.47;2.27;;;;;;;;;;10303967;28;20049;-78
2022/09/03 05:34:28;;;;;;;2.80;2.60;;;;;;;;;;10312403;28;20309;-78
2022/09/03 05:39:28;;;;;;;4.20;2.70;;;;;;;;;;10326640;28;20030;-78
2022/09/03 05:44:30;;;;;;;2.60;2.40;;;;;;;;;;10309014;28;20038;-79
2022/09/03 05:49:30;;;;;;;3.28;2.95;;;;;;;;;;10320565;28;20101;-78
2022/09/03 05:54:31;;;;;;;3.15;2.60;;;;;;;;;;10319309;28;20397;-77
2022/09/03 05:59:31;;;;;;;3.33;2.72;;;;;;;;;;10272548;28;20521;-78
2022/09/03 06:04:32;;;;;;;2.80;2.50;;;;;;;;;;10286508;28;20130;-77
2022/09/03 06:09:32;;;;;;;2.53;2.33;;;;;;;;;;10289432;28;20758;-76
2022/09/03 06:14:33;;;;;;;2.70;2.37;;;;;;;;;;10290459;28;20138;-77
2022/09/03 06:19:33;;;;;;;2.83;2.50;;;;;;;;;;10281059;28;20109;-78
2022/09/03 06:24:33;;;;;;;2.77;2.17;;;;;;;;;;10272226;28;20034;-77
2022/09/03 06:29:34;;;;;;;2.40;2.20;;;;;;;;;;10282586;28;20730;-77
2022/09/03 06:34:34;;;;;;;2.78;2.35;;;;;;;;;;10290887;28;20293;-76
2022/09/03 06:39:35;;;;;;;2.50;2.17;;;;;;;;;;10287022;28;20045;-76
2022/09/03 06:44:35;;;;;;;3.00;2.20;;;;;;;;;;10281138;28;20286;-78
2022/09/03 06:49:37;;;;;;;2.20;2.00;;;;;;;;;;10282816;28;20061;-80
2022/09/03 06:54:39;;;;;;;2.38;2.00;;;;;;;;;;10282591;28;20059;-79
2022/09/03 06:59:42;;;;;;;4.43;2.10;;;;;;;;;;10285144;28;20070;-78
2022/09/03 07:04:42;;;;;;;3.13;2.05;;;;;;;;;;10286421;28;20121;-77
2022/09/03 07:09:43;;;;;;;2.10;1.90;;;;;;;;;;10294671;28;20124;-77
2022/09/03 07:14:45;;;;;;;5.53;1.87;;;;;;;;;;10298513;28;20042;-77
2022/09/03 07:19:45;;;;;;;2.97;2.17;;;;;;;;;;10299626;28;20043;-79
2022/09/03 07:24:46;;;;;;;2.30;2.10;;;;;;;;;;10302260;28;20686;-78
2022/09/03 07:29:46;;;;;;;2.53;1.90;;;;;;;;;;10303444;28;20043;-78
2022/09/03 07:34:47;;;;;;;3.37;1.83;;;;;;;;;;10308630;28;20046;-76
2022/09/03 07:39:50;;;;;;;2.60;1.93;;;;;;;;;;10284678;28;20298;-77
2022/09/03 07:44:50;;;;;;;;;;;;;;;;;;10303430;28;20042;-77
2022/09/03 07:49:50;;;;;;;2.60;1.80;;;;;;;;;;10296695;28;19998;-78
2022/09/03 07:54:52;;;;;;;3.22;1.50;;;;;;;;;;10297506;28;20042;-77
2022/09/03 07:59:53;;;;;;;2.83;2.00;;;;;;;;;;10301862;28;20039;-80
2022/09/03 08:04:53;;;;;;;3.00;2.00;;;;;;;;;;10295223;28;20034;-81
2022/09/03 08:09:54;;;;;;;2.97;1.73;;;;;;;;;;10296356;28;20792;-79
2022/09/03 08:14:56;;;;;;;1.85;1.70;;;;;;;;;;10296166;28;20282;-79
2022/09/03 08:19:57;;;;;;;3.03;1.70;;;;;;;;;;10291672;28;20042;-76
2022/09/03 08:25:00;;;;;;;2.60;1.90;;;;;;;;;;10294924;28;20042;-77
2022/09/03 08:30:02;;;;;;;;;;;;;;;;;;10292249;28;20098;-78
2022/09/03 08:35:04;;;;;;;2.03;1.65;;;;;;;;;;10296742;28;20433;-77
2022/09/03 08:40:06;;;;;;;2.87;1.90;;;;;;;;;;10293000;28;20085;-78
2022/09/03 08:45:07;;;;;;;3.33;1.95;;;;;;;;;;10292655;28;20497;-75
2022/09/03 08:50:07;;;;;;;2.30;1.80;;;;;;;;;;10297465;28;20055;-76
2022/09/03 08:55:17;;;;;;;2.13;1.92;;;;;;;;;;10288896;28;20050;-76
2022/09/03 09:00:17;;;;;;;2.25;2.05;;;;;;;;;;10289523;28;20038;-78
2022/09/03 09:05:23;;;;;;;2.20;1.73;;;;;;;;;;10279626;28;20038;-77
2022/09/03 09:10:26;;;;;;;1.90;1.80;;;;;;;;;;10314693;28;20146;-76
2022/09/03 09:15:30;;;;;;;2.30;1.63;;;;;;;;;;10297757;28;20038;-75
2022/09/03 09:20:34;;;;;;;2.75;2.00;;;;;;;;;;10292251;28;20633;-77
2022/09/03 09:25:41;;;;;;;3.50;1.83;;;;;;;;;;10294748;28;20117;-78
2022/09/03 09:30:44;;;;;;;1.77;1.67;;;;;;;;;;10283483;28;20388;-74
2022/09/03 09:35:44;;;;;;;3.33;1.80;;;;;;;;;;10288817;28;20038;-74
2022/09/03 09:40:45;;;;;;;2.28;1.70;;;;;;;;;;10288381;28;20105;-77
2022/09/03 09:45:47;;;;;;;3.23;1.80;;;;;;;;;;10283690;28;20122;-75
2022/09/03 09:50:47;;;;;;;2.17;1.80;;;;;;;;;;10302908;28;20318;-76
2022/09/03 09:55:57;;;;;;;2.25;1.90;;;;;;;;;;10309020;28;20042;-75
2022/09/03 10:00:58;;;;;;;4.22;1.92;;;;;;;;;;10304819;28;20034;-77
2022/09/03 10:06:52;;;;;;;1.90;1.70;;;;;;;;;;10286821;28;20058;-76
2022/09/03 10:11:24;;;;;;;1.95;1.75;;;;;;;;;;10284115;28;20049;-76
2022/09/03 10:16:27;;;;;;;2.03;1.70;;;;;;;;;;10287734;28;20038;-77
2022/09/03 10:21:46;;;;;;;2.40;1.65;;;;;;;;;;10289221;28;20101;-75
2022/09/03 10:26:47;;;;;;;2.50;1.70;;;;;;;;;;10282628;28;20062;-76
2022/09/03 10:32:07;;;;;;;2.15;1.70;;;;;;;;;;10286808;28;20506;-78
2022/09/03 10:37:20;;;;;;;2.08;1.70;;;;;;;;;;10277732;28;20119;-76
2022/09/03 10:42:24;;;;;;;2.40;1.70;;;;;;;;;;10280666;28;20051;-75
2022/09/03 10:47:43;;;;;;;2.00;1.80;;;;;;;;;;10285584;28;20475;-73
2022/09/03 10:52:46;;;;;;;3.75;1.92;;;;;;;;;;10283309;28;20055;-71
2022/09/03 10:57:56;;;;;;;2.53;1.60;;;;;;;;;;10283893;28;20066;-73
2022/09/03 11:03:13;;;;;;;2.85;1.90;;;;;;;;;;10290679;28;20043;-80
2022/09/03 11:08:20;;;;;;;2.25;2.00;;;;;;;;;;10285916;28;20035;-74
2022/09/03 11:13:23;;;;;;;2.78;1.75;;;;;;;;;;10266847;28;20039;-74
2022/09/03 11:18:24;;;;;;;4.63;2.20;;;;;;;;;;10287656;28;20043;-76
2022/09/03 11:23:26;;;;;;;2.80;2.17;;;;;;;;;;10301770;28;20705;-74
2022/09/03 11:28:45;;;;;;;2.60;2.40;;;;;;;;;;10283481;28;20042;-76
2022/09/03 11:33:52;;;;;;;3.92;2.85;;;;;;;;;;10281648;28;20042;-75
2022/09/03 11:38:53;;;;;;;2.40;2.20;;;;;;;;;;10287901;28;20035;-76
2022/09/03 11:43:54;;;;;;;2.60;2.40;;;;;;;;;;10288618;28;20038;-73
2022/09/03 11:48:56;;;;;;;3.03;2.28;;;;;;;;;;10283891;28;20143;-75
2022/09/03 11:54:06;;;;;;;2.35;2.15;;;;;;;;;;10280199;28;20042;-74
2022/09/03 11:59:12;;;;;;;2.65;2.40;;;;;;;;;;10290322;28;20380;-74
2022/09/03 12:04:14;;;;;;;4.05;2.72;;;;;;;;;;10284486;28;20171;-72
2022/09/03 12:09:33;;;;;;;3.70;2.65;;;;;;;;;;10286573;28;20035;-72
2022/09/03 12:14:43;;;;;;;3.03;2.83;;;;;;;;;;10288454;28;20039;-73
2022/09/03 12:19:51;;;;;;;3.47;2.60;;;;;;;;;;10292579;28;20027;-75
2022/09/03 12:24:53;;;;;;;3.42;3.13;;;;;;;;;;10287443;28;20113;-72
2022/09/03 12:29:58;;;;;;;3.20;2.90;;;;;;;;;;10289936;28;20061;-76
2022/09/03 12:35:22;;;;;;;4.13;2.53;;;;;;;;;;10293823;28;20043;-75
2022/09/03 12:40:26;;;;;;;4.65;2.88;;;;;;;;;;10293217;28;20035;-74
2022/09/03 12:45:27;;;;;;;3.00;2.70;;;;;;;;;;10299197;28;20073;-77
2022/09/03 12:50:28;;;;;;;3.75;3.05;;;;;;;;;;10286789;28;20553;-77
2022/09/03 12:55:34;;;;;;;3.30;3.10;;;;;;;;;;10304839;28;20031;-75
2022/09/03 13:00:36;;;;;;;4.03;3.00;;;;;;;;;;10302704;28;20050;-76
2022/09/03 13:05:43;;;;;;;3.13;2.72;;;;;;;;;;10297863;28;20482;-73
2022/09/03 13:10:44;;;;;;;3.50;3.20;;;;;;;;;;10295507;28;20062;-75
2022/09/03 13:16:03;;;;;;;3.27;2.97;;;;;;;;;;10290762;28;20074;-73
2022/09/03 13:21:13;;;;;;;3.25;2.97;;;;;;;;;;10293498;28;20516;-73
2022/09/03 13:26:24;;;;;;;3.78;3.33;;;;;;;;;;10302164;28;20604;-75
2022/09/03 13:31:31;;;;;;;3.53;3.22;;;;;;;;;;10293460;28;20089;-74
2022/09/03 13:36:46;;;;;;;4.65;3.30;;;;;;;;;;10288223;28;20091;-74
2022/09/03 13:42:09;;;;;;;3.53;3.22;;;;;;;;;;10285620;28;20031;-75
2022/09/03 13:47:16;;;;;;;3.88;3.20;;;;;;;;;;10271364;28;20051;-74
2022/09/03 13:52:35;;;;;;;2.88;2.67;;;;;;;;;;10285211;28;20034;-74
2022/09/03 13:57:45;;;;;;;4.13;3.00;;;;;;;;;;10285013;28;20047;-75
2022/09/03 14:02:53;;;;;;;4.28;3.25;;;;;;;;;;10289178;28;20074;-75
2022/09/03 14:07:56;;;;;;;2.97;2.70;;;;;;;;;;10305143;28;20051;-75
2022/09/03 14:13:06;;;;;;;3.20;2.90;;;;;;;;;;10286950;28;20054;-76
2022/09/03 14:18:17;;;;;;;5.07;3.15;;;;;;;;;;10287518;28;20085;-75
2022/09/03 14:23:21;;;;;;;3.88;3.10;;;;;;;;;;10287271;28;20042;-76
2022/09/03 14:28:40;;;;;;;3.78;2.78;;;;;;;;;;10288695;28;20065;-74
2022/09/03 14:33:59;;;;;;;3.88;3.47;;;;;;;;;;10286295;28;20042;-74
2022/09/03 14:39:19;;;;;;;4.38;3.03;;;;;;;;;;10289290;28;20039;-73
2022/09/03 14:44:38;;;;;;;3.97;3.47;;;;;;;;;;10287408;28;20110;-74
2022/09/03 14:50:05;;;;;;;3.60;3.30;;;;;;;;;;10288298;28;20085;-74
2022/09/03 14:55:25;;;;;;;3.58;2.92;;;;;;;;;;10250718;28;20051;-75
2022/09/03 15:00:33;;;;;;;3.85;3.53;;;;;;;;;;10279888;28;20108;-74
2022/09/03 15:05:52;;;;;;;4.40;2.83;;;;;;;;;;10282903;28;20039;-75
2022/09/03 15:10:59;;;;;;;3.75;3.45;;;;;;;;;;10284483;28;20083;-73
2022/09/03 15:16:00;;;;;;;3.85;3.45;;;;;;;;;;10283837;28;20039;-73
2022/09/03 15:21:14;;;;;;;3.78;3.38;;;;;;;;;;10283754;28;20058;-73
2022/09/03 15:26:31;;;;;;;4.38;3.28;;;;;;;;;;10278397;28;20436;-74
2022/09/03 15:31:45;;;;;;;3.35;3.13;;;;;;;;;;10288860;28;20058;-73
2022/09/03 15:36:52;;;;;;;3.67;3.38;;;;;;;;;;10293028;28;20035;-74
2022/09/03 15:41:57;;;;;;;5.40;3.60;;;;;;;;;;10306238;28;20133;-74
2022/09/03 15:47:09;;;;;;;3.83;3.40;;;;;;;;;;10293335;28;20047;-75
2022/09/03 15:52:26;;;;;;;3.70;3.40;;;;;;;;;;10287434;28;20074;-74
2022/09/03 15:57:30;;;;;;;4.63;3.58;;;;;;;;;;10309423;28;20047;-75
2022/09/03 16:02:53;;;;;;;3.58;3.30;;;;;;;;;;10305034;28;20042;-75
2022/09/03 16:08:09;;;;;;;5.57;3.65;;;;;;;;;;10296591;28;20434;-75
2022/09/03 16:13:32;;;;;;;4.10;3.80;;;;;;;;;;10291865;28;20525;-76
2022/09/03 16:18:41;;;;;;;2.80;2.53;;;;;;;;;;10261177;28;20047;-74
2022/09/03 16:23:44;;;;;;;3.97;1.92;;;;;;;;;;10288743;28;20118;-76
2022/09/03 16:28:50;;;;;;;3.50;2.10;;;;;;;;;;10287073;28;20162;-75
2022/09/03 16:34:07;;;;;;;4.13;2.20;;;;;;;;;;10289748;28;20125;-78
2022/09/03 16:39:19;;;;;;;6.22;2.85;;;;;;;;;;10293661;28;20046;-78
2022/09/03 16:44:39;;;;;;;7.13;4.30;;;;;;;;;;10288971;28;20065;-79
2022/09/03 16:49:59;;;;;;;7.55;3.80;;;;;;;;;;10287666;28;20043;-77
2022/09/03 16:55:20;;;;;;;8.80;4.47;;;;;;;;;;10289963;28;20467;-76
2022/09/03 17:00:26;;;;;;;6.78;4.22;;;;;;;;;;10288993;28;20046;-76
2022/09/03 17:05:38;;;;;;;5.35;4.25;;;;;;;;;;10292117;28;20039;-77
2022/09/03 17:11:01;;;;;;;8.32;5.28;;;;;;;;;;10292681;28;20042;-77
2022/09/03 17:16:21;;;;;;;8.50;4.93;;;;;;;;;;10291887;28;20069;-78
2022/09/03 17:21:30;;;;;;;7.10;4.30;;;;;;;;;;10298380;28;20062;-77
2022/09/03 17:27:04;;;;;;;4.70;3.50;;;;;;;;;;10305263;28;20091;-78
2022/09/03 17:32:14;;;;;;;5.32;3.35;;;;;;;;;;10258861;28;20054;-80
2022/09/03 17:37:20;;;;;;;6.57;4.05;;;;;;;;;;10296320;28;20056;-78
2022/09/03 17:42:27;;;;;;;5.60;4.95;;;;;;;;;;10291931;28;20494;-78
2022/09/03 17:47:41;;;;;;;6.72;5.35;;;;;;;;;;10289594;28;20038;-77
2022/09/03 17:52:49;;;;;;;4.88;4.10;;;;;;;;;;10290169;28;20142;-77
2022/09/03 17:58:03;;;;;;;6.72;4.32;;;;;;;;;;10311588;28;20062;-78
2022/09/03 18:03:08;;;;;;;6.55;4.50;;;;;;;;;;10298593;28;20101;-77
2022/09/03 18:08:15;;;;;;;5.72;4.72;;;;;;;;;;10296664;28;20053;-78
2022/09/03 18:13:18;;;;;;;7.55;4.95;;;;;;;;;;10296277;28;20042;-79
2022/09/03 18:18:29;;;;;;;5.22;4.63;;;;;;;;;;10296132;28;20046;-78
2022/09/03 20:11:58;;;;;;;8.00;5.28;;;;;;;;;;10287631;28;20051;-75
2022/09/03 20:17:14;;;;;;;7.00;4.82;;;;;;;;;;10288833;28;20447;-76
2022/09/03 20:22:23;;;;;;;5.80;4.72;;;;;;;;;;10287543;28;20443;-75
2022/09/03 20:27:26;;;;;;;5.68;4.82;;;;;;;;;;10291668;28;20920;-76
2022/09/03 20:32:59;;;;;;;6.60;5.07;;;;;;;;;;10290145;28;20487;-76
2022/09/03 20:38:15;;;;;;;7.15;5.47;;;;;;;;;;10252900;28;20077;-75
2022/09/03 20:43:34;;;;;;;7.32;5.10;;;;;;;;;;10293066;28;20113;-76
2022/09/03 20:49:02;;;;;;;5.80;5.00;;;;;;;;;;10287122;28;20458;-76
2022/09/03 20:54:18;;;;;;;5.82;5.15;;;;;;;;;;10256338;28;20726;-78
2022/09/03 20:59:24;;;;;;;8.05;5.88;;;;;;;;;;10279450;28;20374;-76
2022/09/03 21:04:38;;;;;;;9.05;6.43;;;;;;;;;;10282924;28;20062;-76
2022/09/03 21:09:45;;;;;;;6.78;5.90;;;;;;;;;;10288616;28;20049;-76
2022/09/03 21:14:45;;;;;;;8.05;6.63;;;;;;;;;;10289263;28;20045;-76
2022/09/03 21:19:46;;;;;;;6.87;5.83;;;;;;;;;;10284874;28;20041;-75
2022/09/03 21:24:50;;;;;;;7.90;5.70;;;;;;;;;;10286929;28;20038;-75
2022/09/03 21:29:59;;;;;;;6.85;5.88;;;;;;;;;;10287025;28;20087;-75
2022/09/03 21:35:12;;;;;;;6.55;5.63;;;;;;;;;;10287018;28;20086;-75
2022/09/03 21:40:15;;;;;;;6.88;6.18;;;;;;;;;;10287895;28;20042;-75
2022/09/03 21:45:28;;;;;;;7.50;6.05;;;;;;;;;;10298950;28;20446;-75
2022/09/03 21:50:44;;;;;;;8.68;6.05;;;;;;;;;;10294812;28;20396;-76
2022/09/03 21:55:57;;;;;;;7.70;6.90;;;;;;;;;;10285868;28;20043;-77
2022/09/03 22:01:04;;;;;;;7.72;5.97;;;;;;;;;;10287061;28;20035;-75
2022/09/03 22:06:12;;;;;;;9.05;6.05;;;;;;;;;;10286053;28;20150;-75
2022/09/03 22:11:22;;;;;;;8.02;6.45;;;;;;;;;;10273665;28;20082;-74
2022/09/03 22:16:22;;;;;;;8.30;6.53;;;;;;;;;;10284941;28;20035;-76
2022/09/03 22:21:37;;;;;;;8.00;6.60;;;;;;;;;;10278739;28;20043;-76
2022/09/03 22:27:00;;;;;;;9.68;6.35;;;;;;;;;;10284385;28;20290;-76
2022/09/03 22:32:32;;;;;;;7.63;6.90;;;;;;;;;;10283010;28;20039;-76
2022/09/03 22:37:51;;;;;;;8.35;7.35;;;;;;;;;;10234008;28;20050;-76
2022/09/03 22:43:01;;;;;;;10.27;6.22;;;;;;;;;;10286143;28;20035;-75
2022/09/03 22:48:20;;;;;;;8.75;6.75;;;;;;;;;;10286455;28;20118;-75
2022/09/03 22:53:33;;;;;;;9.45;7.03;;;;;;;;;;10283087;28;20082;-76
2022/09/03 22:58:55;;;;;;;10.68;6.35;;;;;;;;;;10282159;28;20057;-75
2022/09/03 23:04:18;;;;;;;7.75;5.88;;;;;;;;;;10282259;28;20591;-75
2022/09/03 23:09:21;;;;;;;7.68;5.72;;;;;;;;;;10282882;28;20141;-75
2022/09/03 23:14:21;;;;;;;;;;;;;;;;;;10286771;28;20138;-75
2022/09/03 23:19:39;;;;;;;7.38;5.97;;;;;;;;;;10285785;28;20700;-75
2022/09/03 23:25:00;;;;;;;7.07;5.65;;;;;;;;;;10275625;28;20475;-75
2022/09/03 23:30:02;;;;;;;8.15;6.10;;;;;;;;;;10282999;28;20038;-74
2022/09/03 23:35:07;;;;;;;6.68;5.55;;;;;;;;;;10276975;28;20434;-75
2022/09/03 23:40:27;;;;;;;5.93;5.43;;;;;;;;;;10277535;28;20038;-74
2022/09/03 23:45:28;;;;;;;9.07;6.32;;;;;;;;;;10280769;28;20038;-75
2022/09/03 23:50:31;;;;;;;8.50;6.07;;;;;;;;;;10285223;28;20106;-76
2022/09/03 23:55:32;;;;;;;6.93;6.22;;;;;;;;;;10286255;28;20294;-75
